sensor_id;sensor_type;location;lat;lon;timestamp;temperature;humidity
71175;DHT22;58876;51.994;4.472;2023-02-22T00:00:36;8.20;81.00
71175;DHT22;58876;51.994;4.472;2023-02-22T00:03:18;8.23;81.20
71175;DHT22;58876;51.994;4.472;2023-02-22T00:05:51;8.28;81.31
71175;DHT22;58876;51.994;4.472;2023-02-22T00:08:20;8.37;80.62
71175;DHT22;58876;51.994;4.472;2023-02-22T00:10:46;8.38;81.07
71175;DHT22;58876;51.994;4.472;2023-02-22T00:13:16;8.21;81.25
71175;DHT22;58876;51.994;4.472;2023-02-22T00:15:42;8.15;81.17
71175;DHT22;58876;51.994;4.472;2023-02-22T00:18:12;8.14;81.20
71175;DHT22;58876;51.994;4.472;2023-02-22T00:20:38;8.18;81.32
71175;DHT22;58876;51.994;4.472;2023-02-22T00:23:07;8.21;81.26
71175;DHT22;58876;51.994;4.472;2023-02-22T00:25:33;8.21;80.67
71175;DHT22;58876;51.994;4.472;2023-02-22T00:28:00;8.11;81.04
71175;DHT22;58876;51.994;4.472;2023-02-22T00:30:27;8.14;81.16
71175;DHT22;58876;51.994;4.472;2023-02-22T00:32:55;8.10;81.10
71175;DHT22;58876;51.994;4.472;2023-02-22T00:35:24;8.01;81.10
71175;DHT22;58876;51.994;4.472;2023-02-22T00:37:53;8.07;81.23
71175;DHT22;58876;51.994;4.472;2023-02-22T00:40:22;8.00;80.96
71175;DHT22;58876;51.994;4.472;2023-02-22T00:42:48;7.86;81.44
71175;DHT22;58876;51.994;4.472;2023-02-22T00:45:20;7.87;81.43
71175;DHT22;58876;51.994;4.472;2023-02-22T00:47:47;7.80;81.14
71175;DHT22;58876;51.994;4.472;2023-02-22T00:50:13;7.72;80.87
71175;DHT22;58876;51.994;4.472;2023-02-22T00:52:39;7.63;81.34
71175;DHT22;58876;51.994;4.472;2023-02-22T00:55:07;7.70;81.59
71175;DHT22;58876;51.994;4.472;2023-02-22T00:57:33;7.70;81.21
71175;DHT22;58876;51.994;4.472;2023-02-22T01:00:00;7.66;81.47
71175;DHT22;58876;51.994;4.472;2023-02-22T01:02:40;7.74;81.05
71175;DHT22;58876;51.994;4.472;2023-02-22T01:05:06;7.77;81.25
71175;DHT22;58876;51.994;4.472;2023-02-22T01:07:33;7.80;81.21
71175;DHT22;58876;51.994;4.472;2023-02-22T01:10:00;7.74;80.86
71175;DHT22;58876;51.994;4.472;2023-02-22T01:12:27;7.77;81.31
71175;DHT22;58876;51.994;4.472;2023-02-22T01:14:53;7.82;80.83
71175;DHT22;58876;51.994;4.472;2023-02-22T01:17:24;7.93;80.84
71175;DHT22;58876;51.994;4.472;2023-02-22T01:19:51;7.93;80.28
71175;DHT22;58876;51.994;4.472;2023-02-22T01:22:18;7.77;80.87
71175;DHT22;58876;51.994;4.472;2023-02-22T01:24:49;7.83;80.59
71175;DHT22;58876;51.994;4.472;2023-02-22T01:27:16;7.82;80.62
71175;DHT22;58876;51.994;4.472;2023-02-22T01:29:42;7.84;80.66
71175;DHT22;58876;51.994;4.472;2023-02-22T01:32:07;7.80;80.59
71175;DHT22;58876;51.994;4.472;2023-02-22T01:34:33;7.70;80.93
71175;DHT22;58876;51.994;4.472;2023-02-22T01:37:00;7.74;81.08
71175;DHT22;58876;51.994;4.472;2023-02-22T01:39:28;7.79;80.79
71175;DHT22;58876;51.994;4.472;2023-02-22T01:41:53;7.72;80.90
71175;DHT22;58876;51.994;4.472;2023-02-22T01:44:29;7.66;81.04
71175;DHT22;58876;51.994;4.472;2023-02-22T01:46:56;7.46;81.15
71175;DHT22;58876;51.994;4.472;2023-02-22T01:49:28;7.45;81.80
71175;DHT22;58876;51.994;4.472;2023-02-22T01:52:00;7.49;81.17
71175;DHT22;58876;51.994;4.472;2023-02-22T01:54:33;7.45;81.22
71175;DHT22;58876;51.994;4.472;2023-02-22T01:57:21;7.19;81.67
71175;DHT22;58876;51.994;4.472;2023-02-22T01:59:53;7.12;81.89
71175;DHT22;58876;51.994;4.472;2023-02-22T02:02:20;7.25;82.09
71175;DHT22;58876;51.994;4.472;2023-02-22T02:04:47;7.29;81.99
71175;DHT22;58876;51.994;4.472;2023-02-22T02:07:16;7.34;81.56
71175;DHT22;58876;51.994;4.472;2023-02-22T02:10:00;7.36;81.18
71175;DHT22;58876;51.994;4.472;2023-02-22T02:12:31;7.25;81.50
71175;DHT22;58876;51.994;4.472;2023-02-22T02:15:22;7.15;81.92
71175;DHT22;58876;51.994;4.472;2023-02-22T02:17:50;7.16;81.78
71175;DHT22;58876;51.994;4.472;2023-02-22T02:20:26;7.12;81.73
71175;DHT22;58876;51.994;4.472;2023-02-22T02:34:28;7.21;81.85
71175;DHT22;58876;51.994;4.472;2023-02-22T02:39:58;7.24;82.08
71175;DHT22;58876;51.994;4.472;2023-02-22T02:42:37;7.28;81.75
71175;DHT22;58876;51.994;4.472;2023-02-22T02:45:11;7.22;81.70
71175;DHT22;58876;51.994;4.472;2023-02-22T02:47:45;7.09;82.33
71175;DHT22;58876;51.994;4.472;2023-02-22T02:50:37;7.05;82.58
71175;DHT22;58876;51.994;4.472;2023-02-22T02:53:07;6.97;83.09
71175;DHT22;58876;51.994;4.472;2023-02-22T02:55:36;7.12;82.93
71175;DHT22;58876;51.994;4.472;2023-02-22T02:58:06;7.05;82.73
71175;DHT22;58876;51.994;4.472;2023-02-22T03:00:36;7.03;83.23
71175;DHT22;58876;51.994;4.472;2023-02-22T03:08:44;7.09;83.20
71175;DHT22;58876;51.994;4.472;2023-02-22T03:11:50;6.83;83.35
71175;DHT22;58876;51.994;4.472;2023-02-22T03:14:31;6.87;84.23
71175;DHT22;58876;51.994;4.472;2023-02-22T03:19:50;6.91;84.15
71175;DHT22;58876;51.994;4.472;2023-02-22T03:22:35;6.90;84.14
71175;DHT22;58876;51.994;4.472;2023-02-22T03:25:09;6.87;84.23
71175;DHT22;58876;51.994;4.472;2023-02-22T03:27:45;6.91;84.02
71175;DHT22;58876;51.994;4.472;2023-02-22T03:30:42;6.95;83.88
71175;DHT22;58876;51.994;4.472;2023-02-22T03:36:03;7.01;83.63
71175;DHT22;58876;51.994;4.472;2023-02-22T03:38:32;7.03;83.43
71175;DHT22;58876;51.994;4.472;2023-02-22T03:41:01;6.98;83.73
71175;DHT22;58876;51.994;4.472;2023-02-22T03:43:37;6.91;83.63
71175;DHT22;58876;51.994;4.472;2023-02-22T03:46:07;6.73;84.31
71175;DHT22;58876;51.994;4.472;2023-02-22T03:48:52;6.79;84.62
71175;DHT22;58876;51.994;4.472;2023-02-22T03:51:20;6.81;84.57
71175;DHT22;58876;51.994;4.472;2023-02-22T03:53:45;6.87;84.32
71175;DHT22;58876;51.994;4.472;2023-02-22T03:56:22;6.98;84.19
71175;DHT22;58876;51.994;4.472;2023-02-22T03:58:50;6.98;83.79
71175;DHT22;58876;51.994;4.472;2023-02-22T04:01:17;6.76;84.01
71175;DHT22;58876;51.994;4.472;2023-02-22T04:03:44;6.64;84.61
71175;DHT22;58876;51.994;4.472;2023-02-22T04:06:10;6.66;84.71
71175;DHT22;58876;51.994;4.472;2023-02-22T04:08:35;6.76;84.73
71175;DHT22;58876;51.994;4.472;2023-02-22T04:11:01;6.80;84.66
71175;DHT22;58876;51.994;4.472;2023-02-22T04:13:26;6.85;84.47
71175;DHT22;58876;51.994;4.472;2023-02-22T04:15:52;6.91;84.18
71175;DHT22;58876;51.994;4.472;2023-02-22T04:18:18;6.88;84.37
71175;DHT22;58876;51.994;4.472;2023-02-22T04:20:44;6.97;84.40
71175;DHT22;58876;51.994;4.472;2023-02-22T04:23:10;6.83;83.91
71175;DHT22;58876;51.994;4.472;2023-02-22T04:25:35;6.88;84.52
71175;DHT22;58876;51.994;4.472;2023-02-22T04:28:01;6.81;84.70
71175;DHT22;58876;51.994;4.472;2023-02-22T04:30:27;6.74;84.87
71175;DHT22;58876;51.994;4.472;2023-02-22T04:32:55;6.79;84.83
71175;DHT22;58876;51.994;4.472;2023-02-22T04:35:21;6.76;84.70
71175;DHT22;58876;51.994;4.472;2023-02-22T04:37:46;6.83;84.92
71175;DHT22;58876;51.994;4.472;2023-02-22T04:40:12;6.72;84.92
71175;DHT22;58876;51.994;4.472;2023-02-22T04:42:38;6.56;85.48
71175;DHT22;58876;51.994;4.472;2023-02-22T04:45:06;6.52;85.81
71175;DHT22;58876;51.994;4.472;2023-02-22T04:47:33;6.57;86.10
71175;DHT22;58876;51.994;4.472;2023-02-22T04:49:58;6.60;85.92
71175;DHT22;58876;51.994;4.472;2023-02-22T04:52:25;6.64;86.04
71175;DHT22;58876;51.994;4.472;2023-02-22T04:54:51;6.67;86.04
71175;DHT22;58876;51.994;4.472;2023-02-22T04:57:16;6.74;86.16
71175;DHT22;58876;51.994;4.472;2023-02-22T04:59:42;6.85;85.98
71175;DHT22;58876;51.994;4.472;2023-02-22T05:02:07;6.97;85.66
71175;DHT22;58876;51.994;4.472;2023-02-22T05:04:33;6.93;85.19
71175;DHT22;58876;51.994;4.472;2023-02-22T05:06:58;6.90;85.54
71175;DHT22;58876;51.994;4.472;2023-02-22T05:09:24;6.88;85.55
71175;DHT22;58876;51.994;4.472;2023-02-22T05:11:49;6.97;85.47
71175;DHT22;58876;51.994;4.472;2023-02-22T05:14:15;6.94;85.41
71175;DHT22;58876;51.994;4.472;2023-02-22T05:16:40;6.74;86.08
71175;DHT22;58876;51.994;4.472;2023-02-22T05:19:06;6.77;86.27
71175;DHT22;58876;51.994;4.472;2023-02-22T05:21:32;6.76;86.35
71175;DHT22;58876;51.994;4.472;2023-02-22T05:23:58;6.87;86.50
71175;DHT22;58876;51.994;4.472;2023-02-22T05:26:23;6.85;86.04
71175;DHT22;58876;51.994;4.472;2023-02-22T05:28:48;6.97;86.34
71175;DHT22;58876;51.994;4.472;2023-02-22T05:31:14;7.03;86.09
71175;DHT22;58876;51.994;4.472;2023-02-22T05:33:39;7.03;85.74
71175;DHT22;58876;51.994;4.472;2023-02-22T05:36:06;6.90;86.37
71175;DHT22;58876;51.994;4.472;2023-02-22T05:38:32;6.83;86.48
71175;DHT22;58876;51.994;4.472;2023-02-22T05:40:57;6.84;86.58
71175;DHT22;58876;51.994;4.472;2023-02-22T05:43:23;6.87;86.75
71175;DHT22;58876;51.994;4.472;2023-02-22T05:45:48;6.85;86.69
71175;DHT22;58876;51.994;4.472;2023-02-22T05:48:13;6.93;86.74
71175;DHT22;58876;51.994;4.472;2023-02-22T05:50:39;6.90;86.59
71175;DHT22;58876;51.994;4.472;2023-02-22T05:53:05;6.95;86.55
71175;DHT22;58876;51.994;4.472;2023-02-22T05:55:30;6.83;86.44
71175;DHT22;58876;51.994;4.472;2023-02-22T05:57:56;6.77;86.82
71175;DHT22;58876;51.994;4.472;2023-02-22T06:00:27;6.90;86.95
71175;DHT22;58876;51.994;4.472;2023-02-22T06:03:03;7.01;86.64
71175;DHT22;58876;51.994;4.472;2023-02-22T06:05:29;7.08;86.32
71175;DHT22;58876;51.994;4.472;2023-02-22T06:07:56;7.14;86.08
71175;DHT22;58876;51.994;4.472;2023-02-22T06:10:23;7.12;85.76
71175;DHT22;58876;51.994;4.472;2023-02-22T06:12:49;7.16;85.90
71175;DHT22;58876;51.994;4.472;2023-02-22T06:15:15;7.24;85.75
71175;DHT22;58876;51.994;4.472;2023-02-22T06:17:42;7.16;85.51
71175;DHT22;58876;51.994;4.472;2023-02-22T06:20:10;7.15;85.62
71175;DHT22;58876;51.994;4.472;2023-02-22T06:22:36;7.18;85.61
71175;DHT22;58876;51.994;4.472;2023-02-22T06:25:03;7.24;85.63
71175;DHT22;58876;51.994;4.472;2023-02-22T06:27:32;7.22;85.85
71175;DHT22;58876;51.994;4.472;2023-02-22T06:29:59;7.32;85.75
71175;DHT22;58876;51.994;4.472;2023-02-22T06:32:24;7.38;85.41
71175;DHT22;58876;51.994;4.472;2023-02-22T06:34:50;7.36;85.24
71175;DHT22;58876;51.994;4.472;2023-02-22T06:37:15;7.28;85.06
71175;DHT22;58876;51.994;4.472;2023-02-22T06:39:41;7.22;85.71
71175;DHT22;58876;51.994;4.472;2023-02-22T06:42:06;7.25;85.35
71175;DHT22;58876;51.994;4.472;2023-02-22T06:44:32;7.25;85.36
71175;DHT22;58876;51.994;4.472;2023-02-22T06:46:58;7.18;85.30
71175;DHT22;58876;51.994;4.472;2023-02-22T06:49:25;7.14;85.36
71175;DHT22;58876;51.994;4.472;2023-02-22T06:51:52;7.15;85.41
71175;DHT22;58876;51.994;4.472;2023-02-22T06:54:18;7.21;85.39
71175;DHT22;58876;51.994;4.472;2023-02-22T06:56:43;7.14;85.55
71175;DHT22;58876;51.994;4.472;2023-02-22T06:59:09;7.16;85.68
71175;DHT22;58876;51.994;4.472;2023-02-22T07:01:35;7.14;85.59
71175;DHT22;58876;51.994;4.472;2023-02-22T07:04:00;7.21;85.53
71175;DHT22;58876;51.994;4.472;2023-02-22T07:06:26;7.26;85.38
71175;DHT22;58876;51.994;4.472;2023-02-22T07:08:51;7.28;85.25
71175;DHT22;58876;51.994;4.472;2023-02-22T07:11:17;7.31;85.03
71175;DHT22;58876;51.994;4.472;2023-02-22T07:13:42;7.25;85.21
71175;DHT22;58876;51.994;4.472;2023-02-22T07:16:08;7.24;85.07
71175;DHT22;58876;51.994;4.472;2023-02-22T07:18:33;7.19;85.17
71175;DHT22;58876;51.994;4.472;2023-02-22T07:20:59;7.26;85.23
71175;DHT22;58876;51.994;4.472;2023-02-22T07:23:27;7.31;85.32
71175;DHT22;58876;51.994;4.472;2023-02-22T07:25:52;7.36;85.10
71175;DHT22;58876;51.994;4.472;2023-02-22T07:28:18;7.44;85.00
71175;DHT22;58876;51.994;4.472;2023-02-22T07:30:43;7.44;84.67
71175;DHT22;58876;51.994;4.472;2023-02-22T07:33:11;7.22;84.62
71175;DHT22;58876;51.994;4.472;2023-02-22T07:35:45;7.19;85.02
71175;DHT22;58876;51.994;4.472;2023-02-22T07:38:12;7.24;85.25
71175;DHT22;58876;51.994;4.472;2023-02-22T07:40:38;7.16;85.58
71175;DHT22;58876;51.994;4.472;2023-02-22T07:43:15;7.29;85.61
71175;DHT22;58876;51.994;4.472;2023-02-22T07:45:41;7.34;85.25
71175;DHT22;58876;51.994;4.472;2023-02-22T07:48:07;7.42;85.07
71175;DHT22;58876;51.994;4.472;2023-02-22T07:50:34;7.34;84.90
71175;DHT22;58876;51.994;4.472;2023-02-22T07:53:03;7.34;85.00
71175;DHT22;58876;51.994;4.472;2023-02-22T07:55:30;7.36;84.80
71175;DHT22;58876;51.994;4.472;2023-02-22T07:57:59;7.41;84.88
71175;DHT22;58876;51.994;4.472;2023-02-22T08:00:31;7.51;84.51
71175;DHT22;58876;51.994;4.472;2023-02-22T08:02:59;7.51;84.56
71175;DHT22;58876;51.994;4.472;2023-02-22T08:05:27;7.52;84.57
71175;DHT22;58876;51.994;4.472;2023-02-22T08:07:54;7.63;84.15
71175;DHT22;58876;51.994;4.472;2023-02-22T08:10:21;7.66;84.15
71175;DHT22;58876;51.994;4.472;2023-02-22T08:12:48;7.73;83.81
71175;DHT22;58876;51.994;4.472;2023-02-22T08:15:20;7.80;83.93
71175;DHT22;58876;51.994;4.472;2023-02-22T08:17:46;7.82;83.84
71175;DHT22;58876;51.994;4.472;2023-02-22T08:20:12;7.84;83.65
71175;DHT22;58876;51.994;4.472;2023-02-22T08:22:37;7.84;83.32
71175;DHT22;58876;51.994;4.472;2023-02-22T08:25:05;7.74;83.21
71175;DHT22;58876;51.994;4.472;2023-02-22T08:27:30;7.80;83.51
71175;DHT22;58876;51.994;4.472;2023-02-22T08:29:56;7.90;83.20
71175;DHT22;58876;51.994;4.472;2023-02-22T08:32:22;7.98;83.05
71175;DHT22;58876;51.994;4.472;2023-02-22T08:34:48;8.04;82.69
71175;DHT22;58876;51.994;4.472;2023-02-22T08:37:15;8.14;82.74
71175;DHT22;58876;51.994;4.472;2023-02-22T08:39:41;8.30;82.19
71175;DHT22;58876;51.994;4.472;2023-02-22T08:42:07;8.41;81.76
71175;DHT22;58876;51.994;4.472;2023-02-22T08:44:36;8.45;81.66
71175;DHT22;58876;51.994;4.472;2023-02-22T08:47:02;8.55;81.65
71175;DHT22;58876;51.994;4.472;2023-02-22T08:49:28;8.63;81.26
71175;DHT22;58876;51.994;4.472;2023-02-22T08:51:53;8.73;81.19
71175;DHT22;58876;51.994;4.472;2023-02-22T08:54:18;8.85;80.77
71175;DHT22;58876;51.994;4.472;2023-02-22T08:56:44;8.73;80.21
71175;DHT22;58876;51.994;4.472;2023-02-22T08:59:09;8.69;80.38
71175;DHT22;58876;51.994;4.472;2023-02-22T09:01:35;8.69;80.63
71175;DHT22;58876;51.994;4.472;2023-02-22T09:04:01;8.75;80.52
71175;DHT22;58876;51.994;4.472;2023-02-22T09:06:27;8.69;80.52
71175;DHT22;58876;51.994;4.472;2023-02-22T09:08:53;8.63;80.61
71175;DHT22;58876;51.994;4.472;2023-02-22T09:11:19;8.66;80.51
71175;DHT22;58876;51.994;4.472;2023-02-22T09:13:44;8.72;80.38
71175;DHT22;58876;51.994;4.472;2023-02-22T09:16:10;8.72;80.28
71175;DHT22;58876;51.994;4.472;2023-02-22T09:18:36;8.79;80.29
71175;DHT22;58876;51.994;4.472;2023-02-22T09:21:03;8.80;80.04
71175;DHT22;58876;51.994;4.472;2023-02-22T09:23:28;8.76;79.89
71175;DHT22;58876;51.994;4.472;2023-02-22T09:25:54;8.80;79.98
71175;DHT22;58876;51.994;4.472;2023-02-22T09:28:19;8.92;80.09
71175;DHT22;58876;51.994;4.472;2023-02-22T09:30:45;8.89;79.75
71175;DHT22;58876;51.994;4.472;2023-02-22T09:33:14;8.90;79.32
71175;DHT22;58876;51.994;4.472;2023-02-22T09:35:41;8.99;79.04
71175;DHT22;58876;51.994;4.472;2023-02-22T09:38:08;8.63;79.60
71175;DHT22;58876;51.994;4.472;2023-02-22T09:40:39;8.75;80.00
71175;DHT22;58876;51.994;4.472;2023-02-22T09:49:08;8.93;79.91
71175;DHT22;58876;51.994;4.472;2023-02-22T09:51:51;8.97;78.82
71175;DHT22;58876;51.994;4.472;2023-02-22T09:54:36;8.89;78.75
71175;DHT22;58876;51.994;4.472;2023-02-22T09:57:06;8.82;79.31
71175;DHT22;58876;51.994;4.472;2023-02-22T09:59:59;8.92;79.12
71175;DHT22;58876;51.994;4.472;2023-02-22T10:02:31;8.94;79.97
71175;DHT22;58876;51.994;4.472;2023-02-22T10:05:18;9.02;79.56
71175;DHT22;58876;51.994;4.472;2023-02-22T10:07:57;9.12;79.99
71175;DHT22;58876;51.994;4.472;2023-02-22T10:10:27;9.03;79.80
71175;DHT22;58876;51.994;4.472;2023-02-22T10:18:40;8.97;80.56
71175;DHT22;58876;51.994;4.472;2023-02-22T10:21:53;9.16;80.91
71175;DHT22;58876;51.994;4.472;2023-02-22T10:26:35;9.22;80.16
71175;DHT22;58876;51.994;4.472;2023-02-22T10:29:09;9.04;79.99
71175;DHT22;58876;51.994;4.472;2023-02-22T10:31:44;9.06;79.70
71175;DHT22;58876;51.994;4.472;2023-02-22T10:34:14;9.14;79.12
71175;DHT22;58876;51.994;4.472;2023-02-22T10:36:43;9.19;79.04
71175;DHT22;58876;51.994;4.472;2023-02-22T10:39:30;9.47;78.58
71175;DHT22;58876;51.994;4.472;2023-02-22T10:42:00;9.72;78.52
71175;DHT22;58876;51.994;4.472;2023-02-22T10:44:32;9.83;77.70
71175;DHT22;58876;51.994;4.472;2023-02-22T10:47:00;10.16;77.05
71175;DHT22;58876;51.994;4.472;2023-02-22T10:49:34;10.32;75.54
71175;DHT22;58876;51.994;4.472;2023-02-22T10:52:02;10.40;74.55
71175;DHT22;58876;51.994;4.472;2023-02-22T10:54:39;10.67;75.00
71175;DHT22;58876;51.994;4.472;2023-02-22T10:57:06;10.85;74.68
71175;DHT22;58876;51.994;4.472;2023-02-22T10:59:37;11.01;74.32
71175;DHT22;58876;51.994;4.472;2023-02-22T11:02:20;10.72;73.61
71175;DHT22;58876;51.994;4.472;2023-02-22T11:04:53;10.64;74.07
71175;DHT22;58876;51.994;4.472;2023-02-22T11:07:22;10.71;73.79
71175;DHT22;58876;51.994;4.472;2023-02-22T11:09:57;10.85;73.16
71175;DHT22;58876;51.994;4.472;2023-02-22T11:12:35;10.87;73.66
71175;DHT22;58876;51.994;4.472;2023-02-22T11:17:44;10.85;74.06
71175;DHT22;58876;51.994;4.472;2023-02-22T11:20:23;11.11;74.37
71175;DHT22;58876;51.994;4.472;2023-02-22T11:22:58;11.19;71.88
71175;DHT22;58876;51.994;4.472;2023-02-22T11:25:32;10.94;72.27
71175;DHT22;58876;51.994;4.472;2023-02-22T11:28:28;11.05;73.58
71175;DHT22;58876;51.994;4.472;2023-02-22T11:31:14;11.01;71.44
71175;DHT22;58876;51.994;4.472;2023-02-22T11:34:07;11.09;71.89
71175;DHT22;58876;51.994;4.472;2023-02-22T11:36:48;10.91;72.05
71175;DHT22;58876;51.994;4.472;2023-02-22T11:41:47;10.90;72.47
71175;DHT22;58876;51.994;4.472;2023-02-22T11:44:29;10.97;72.43
71175;DHT22;58876;51.994;4.472;2023-02-22T11:46:57;11.18;71.56
71175;DHT22;58876;51.994;4.472;2023-02-22T11:49:43;11.23;71.78
71175;DHT22;58876;51.994;4.472;2023-02-22T11:52:23;11.16;72.38
71175;DHT22;58876;51.994;4.472;2023-02-22T12:00:22;11.67;69.98
71175;DHT22;58876;51.994;4.472;2023-02-22T12:05:55;11.73;70.89
71175;DHT22;58876;51.994;4.472;2023-02-22T12:11:38;12.08;69.36
71175;DHT22;58876;51.994;4.472;2023-02-22T12:19:36;11.80;69.19
71175;DHT22;58876;51.994;4.472;2023-02-22T12:22:26;12.04;70.26
71175;DHT22;58876;51.994;4.472;2023-02-22T12:27:44;11.84;69.21
71175;DHT22;58876;51.994;4.472;2023-02-22T12:32:51;11.80;69.99
71175;DHT22;58876;51.994;4.472;2023-02-22T12:35:23;11.84;69.97
71175;DHT22;58876;51.994;4.472;2023-02-22T12:37:56;11.70;70.61
71175;DHT22;58876;51.994;4.472;2023-02-22T12:43:22;11.40;71.12
71175;DHT22;58876;51.994;4.472;2023-02-22T12:48:59;11.38;71.09
71175;DHT22;58876;51.994;4.472;2023-02-22T12:55:05;11.28;71.39
71175;DHT22;58876;51.994;4.472;2023-02-22T12:57:54;11.04;72.69
71175;DHT22;58876;51.994;4.472;2023-02-22T13:00:47;10.94;72.73
71175;DHT22;58876;51.994;4.472;2023-02-22T13:03:36;11.21;72.90
71175;DHT22;58876;51.994;4.472;2023-02-22T13:09:11;11.42;72.02
71175;DHT22;58876;51.994;4.472;2023-02-22T13:11:56;11.43;72.16
71175;DHT22;58876;51.994;4.472;2023-02-22T13:17:34;11.74;71.20
71175;DHT22;58876;51.994;4.472;2023-02-22T13:20:07;11.52;72.23
71175;DHT22;58876;51.994;4.472;2023-02-22T13:22:46;11.69;72.24
71175;DHT22;58876;51.994;4.472;2023-02-22T13:25:19;11.77;72.27
71175;DHT22;58876;51.994;4.472;2023-02-22T13:30:55;11.69;71.46
71175;DHT22;58876;51.994;4.472;2023-02-22T13:33:37;11.52;72.72
71175;DHT22;58876;51.994;4.472;2023-02-22T13:38:59;11.60;72.54
71175;DHT22;58876;51.994;4.472;2023-02-22T13:41:49;11.58;72.20
71175;DHT22;58876;51.994;4.472;2023-02-22T13:44:26;11.70;71.95
71175;DHT22;58876;51.994;4.472;2023-02-22T13:52:28;11.79;73.17
71175;DHT22;58876;51.994;4.472;2023-02-22T13:55:01;11.79;72.20
71175;DHT22;58876;51.994;4.472;2023-02-22T13:57:40;11.97;71.93
71175;DHT22;58876;51.994;4.472;2023-02-22T14:03:03;11.95;71.98
71175;DHT22;58876;51.994;4.472;2023-02-22T14:13:12;11.35;73.45
71175;DHT22;58876;51.994;4.472;2023-02-22T14:18:24;11.39;74.26
71175;DHT22;58876;51.994;4.472;2023-02-22T14:21:13;11.33;74.83
71175;DHT22;58876;51.994;4.472;2023-02-22T14:23:46;11.40;74.16
71175;DHT22;58876;51.994;4.472;2023-02-22T14:28:49;11.58;73.79
71175;DHT22;58876;51.994;4.472;2023-02-22T14:31:18;11.65;74.23
71175;DHT22;58876;51.994;4.472;2023-02-22T14:33:52;11.80;73.52
71175;DHT22;58876;51.994;4.472;2023-02-22T14:36:27;11.79;73.91
71175;DHT22;58876;51.994;4.472;2023-02-22T14:42:17;11.84;73.67
71175;DHT22;58876;51.994;4.472;2023-02-22T14:45:08;11.55;74.15
71175;DHT22;58876;51.994;4.472;2023-02-22T14:47:54;11.59;73.84
71175;DHT22;58876;51.994;4.472;2023-02-22T14:53:25;11.79;73.93
71175;DHT22;58876;51.994;4.472;2023-02-22T14:56:05;11.81;73.77
71175;DHT22;58876;51.994;4.472;2023-02-22T14:58:47;11.84;73.36
71175;DHT22;58876;51.994;4.472;2023-02-22T15:01:34;11.81;73.94
71175;DHT22;58876;51.994;4.472;2023-02-22T15:04:24;11.29;75.68
71175;DHT22;58876;51.994;4.472;2023-02-22T15:06:52;11.31;76.31
71175;DHT22;58876;51.994;4.472;2023-02-22T15:11:54;11.18;75.74
71175;DHT22;58876;51.994;4.472;2023-02-22T15:14:39;10.91;77.31
71175;DHT22;58876;51.994;4.472;2023-02-22T15:17:16;10.98;77.75
71175;DHT22;58876;51.994;4.472;2023-02-22T15:19:45;10.88;77.37
71175;DHT22;58876;51.994;4.472;2023-02-22T15:22:23;11.04;77.88
71175;DHT22;58876;51.994;4.472;2023-02-22T15:25:04;10.90;78.02
71175;DHT22;58876;51.994;4.472;2023-02-22T15:27:30;10.87;78.39
71175;DHT22;58876;51.994;4.472;2023-02-22T15:30:05;10.51;79.71
71175;DHT22;58876;51.994;4.472;2023-02-22T15:32:33;10.71;79.37
71175;DHT22;58876;51.994;4.472;2023-02-22T15:35:28;10.80;79.20
71175;DHT22;58876;51.994;4.472;2023-02-22T15:38:06;10.61;79.21
71175;DHT22;58876;51.994;4.472;2023-02-22T15:40:40;10.54;80.06
71175;DHT22;58876;51.994;4.472;2023-02-22T15:43:22;10.46;80.71
71175;DHT22;58876;51.994;4.472;2023-02-22T15:45:57;10.42;81.05
71175;DHT22;58876;51.994;4.472;2023-02-22T15:48:24;10.32;81.06
71175;DHT22;58876;51.994;4.472;2023-02-22T15:51:06;10.13;82.16
71175;DHT22;58876;51.994;4.472;2023-02-22T15:53:41;9.98;82.46
71175;DHT22;58876;51.994;4.472;2023-02-22T15:56:16;9.88;83.22
71175;DHT22;58876;51.994;4.472;2023-02-22T15:58:45;9.99;83.42
71175;DHT22;58876;51.994;4.472;2023-02-22T16:01:17;10.17;82.73
71175;DHT22;58876;51.994;4.472;2023-02-22T16:03:50;9.88;84.09
71175;DHT22;58876;51.994;4.472;2023-02-22T16:06:33;9.99;83.75
71175;DHT22;58876;51.994;4.472;2023-02-22T16:09:18;9.98;83.63
71175;DHT22;58876;51.994;4.472;2023-02-22T16:11:48;9.75;84.57
71175;DHT22;58876;51.994;4.472;2023-02-22T16:17:35;9.74;84.56
71175;DHT22;58876;51.994;4.472;2023-02-22T16:22:38;9.85;84.56
71175;DHT22;58876;51.994;4.472;2023-02-22T16:25:24;9.67;85.43
71175;DHT22;58876;51.994;4.472;2023-02-22T16:28:00;9.64;85.45
71175;DHT22;58876;51.994;4.472;2023-02-22T16:30:33;9.65;85.36
71175;DHT22;58876;51.994;4.472;2023-02-22T16:33:04;9.82;84.88
71175;DHT22;58876;51.994;4.472;2023-02-22T16:35:30;9.67;85.26
71175;DHT22;58876;51.994;4.472;2023-02-22T16:38:05;9.75;85.53
71175;DHT22;58876;51.994;4.472;2023-02-22T16:40:47;9.71;84.87
71175;DHT22;58876;51.994;4.472;2023-02-22T16:43:19;9.64;84.95
71175;DHT22;58876;51.994;4.472;2023-02-22T16:45:46;9.62;85.07
71175;DHT22;58876;51.994;4.472;2023-02-22T16:48:17;9.50;85.78
71175;DHT22;58876;51.994;4.472;2023-02-22T16:50:43;9.55;85.23
71175;DHT22;58876;51.994;4.472;2023-02-22T16:53:09;9.57;85.00
71175;DHT22;58876;51.994;4.472;2023-02-22T16:55:35;9.71;84.66
71175;DHT22;58876;51.994;4.472;2023-02-22T16:58:02;9.92;84.00
71175;DHT22;58876;51.994;4.472;2023-02-22T17:00:28;9.88;83.80
71175;DHT22;58876;51.994;4.472;2023-02-22T17:02:58;9.81;83.64
71175;DHT22;58876;51.994;4.472;2023-02-22T17:05:24;9.91;83.60
71175;DHT22;58876;51.994;4.472;2023-02-22T17:07:49;9.96;83.18
71175;DHT22;58876;51.994;4.472;2023-02-22T17:10:18;9.83;83.85
71175;DHT22;58876;51.994;4.472;2023-02-22T17:12:45;9.77;84.17
71175;DHT22;58876;51.994;4.472;2023-02-22T17:15:20;9.91;84.56
71175;DHT22;58876;51.994;4.472;2023-02-22T17:17:47;10.08;84.04
71175;DHT22;58876;51.994;4.472;2023-02-22T17:20:12;10.03;83.75
71175;DHT22;58876;51.994;4.472;2023-02-22T17:22:38;9.91;83.98
71175;DHT22;58876;51.994;4.472;2023-02-22T17:25:22;9.96;84.21
71175;DHT22;58876;51.994;4.472;2023-02-22T17:27:50;9.99;83.84
71175;DHT22;58876;51.994;4.472;2023-02-22T17:30:15;10.03;83.72
71175;DHT22;58876;51.994;4.472;2023-02-22T17:32:42;10.05;83.37
71175;DHT22;58876;51.994;4.472;2023-02-22T17:35:07;10.13;83.02
71175;DHT22;58876;51.994;4.472;2023-02-22T17:37:33;10.08;82.89
71175;DHT22;58876;51.994;4.472;2023-02-22T17:39:58;10.09;83.37
71175;DHT22;58876;51.994;4.472;2023-02-22T17:42:24;10.10;83.03
71175;DHT22;58876;51.994;4.472;2023-02-22T17:44:49;10.12;82.78
71175;DHT22;58876;51.994;4.472;2023-02-22T17:47:15;10.17;82.61
71175;DHT22;58876;51.994;4.472;2023-02-22T17:49:40;9.91;83.24
71175;DHT22;58876;51.994;4.472;2023-02-22T17:52:05;9.95;83.61
71175;DHT22;58876;51.994;4.472;2023-02-22T17:54:31;9.96;83.18
71175;DHT22;58876;51.994;4.472;2023-02-22T17:56:59;9.98;83.28
71175;DHT22;58876;51.994;4.472;2023-02-22T17:59:25;9.85;83.52
71175;DHT22;58876;51.994;4.472;2023-02-22T18:01:51;9.71;84.04
71175;DHT22;58876;51.994;4.472;2023-02-22T18:04:19;9.85;83.77
71175;DHT22;58876;51.994;4.472;2023-02-22T18:06:45;9.67;84.53
71175;DHT22;58876;51.994;4.472;2023-02-22T18:09:10;9.72;84.00